Time;durP1;ratioP1;P1;durP2;ratioP2;P2;SDS_P1;SDS_P2;PMS_P1;PMS_P2;Temp;Humidity;BMP_temperature;BMP_pressure;BME280_temperature;BME280_humidity;BME280_pressure;Samples;Min_cycle;Max_cycle;Signal;HPM_P1;HPM_P2
2022/09/03 00:00:43;;;;;;;;;;;14.70;99.90;;;;;;4914595;29;19919;-74
2022/09/03 00:03:21;;;;;;;;;;;14.70;99.90;;;;;;4900728;29;19923;-74
2022/09/03 00:05:47;;;;;;;;;;;14.60;99.90;;;;;;4919862;29;19919;-74
2022/09/03 00:08:33;;;;;;;;;;;14.70;99.90;;;;;;4920076;29;19918;-74
2022/09/03 00:11:02;;;;;;;;;;;14.60;99.90;;;;;;4921155;29;19919;-73
2022/09/03 00:13:38;;;;;;;;;;;14.70;99.90;;;;;;4920789;29;20711;-74
2022/09/03 00:16:10;;;;;;;;;;;14.70;99.90;;;;;;4919862;29;19919;-73
2022/09/03 00:18:40;;;;;;;;;;;14.70;99.90;;;;;;4919115;29;20014;-75
2022/09/03 00:21:08;;;;;;;;;;;14.70;99.90;;;;;;4918497;29;19918;-74
2022/09/03 00:23:39;;;;;;;;;;;14.70;99.90;;;;;;4916602;29;19937;-75
2022/09/03 00:26:11;;;;;;;;;;;14.80;99.90;;;;;;4917347;29;20319;-74
2022/09/03 00:28:51;;;;;;;;;;;14.80;99.90;;;;;;4920057;29;19915;-75
2022/09/03 00:31:20;;;;;;;;;;;14.90;99.90;;;;;;4918660;29;19984;-74
2022/09/03 00:33:47;;;;;;;;;;;14.90;99.90;;;;;;4899384;29;20014;-73
2022/09/03 00:36:12;;;;;;;;;;;15.00;99.90;;;;;;4918820;29;20405;-74
2022/09/03 00:38:39;;;;;;;;;;;15.00;99.90;;;;;;4918324;29;19963;-74
2022/09/03 00:41:20;;;;;;;;;;;15.00;99.90;;;;;;4919394;29;19963;-74
2022/09/03 00:43:48;;;;;;;;;;;15.00;99.90;;;;;;4918975;29;20378;-74
2022/09/03 00:46:21;;;;;;;;;;;14.90;99.90;;;;;;4919207;29;19922;-74
2022/09/03 00:48:46;;;;;;;;;;;14.80;99.90;;;;;;4917969;29;20001;-73
2022/09/03 00:51:28;;;;;;;;;;;14.80;99.90;;;;;;4919171;29;19969;-74
2022/09/03 00:53:53;;;;;;;;;;;14.60;99.90;;;;;;4917899;29;20258;-73
2022/09/03 00:56:30;;;;;;;;;;;14.60;99.90;;;;;;4919894;29;19918;-74
2022/09/03 00:58:55;;;;;;;;;;;14.50;99.90;;;;;;4920195;29;19945;-74
2022/09/03 01:01:25;;;;;;;;;;;14.40;99.90;;;;;;4918596;29;20263;-73
2022/09/03 01:03:52;;;;;;;;;;;14.30;99.90;;;;;;4916752;29;19919;-74
2022/09/03 01:06:21;;;;;;;;;;;14.40;99.90;;;;;;4919248;29;19919;-72
2022/09/03 01:08:52;;;;;;;;;;;14.40;99.90;;;;;;4916992;29;20087;-74
2022/09/03 01:11:33;;;;;;;;;;;14.50;99.90;;;;;;4920336;29;19993;-73
2022/09/03 01:14:08;;;;;;;;;;;14.60;99.90;;;;;;4882986;29;20351;-74
2022/09/03 01:16:34;;;;;;;;;;;14.60;99.90;;;;;;4912206;29;19935;-73
2022/09/03 01:19:12;;;;;;;;;;;14.60;99.90;;;;;;4916222;29;19941;-73
2022/09/03 01:21:41;;;;;;;;;;;14.50;99.90;;;;;;4900809;29;19922;-73
2022/09/03 01:24:22;;;;;;;;;;;14.50;99.90;;;;;;4907650;29;19918;-74
2022/09/03 01:27:02;;;;;;;;;;;14.50;99.90;;;;;;4918619;29;20337;-73
2022/09/03 01:29:38;;;;;;;;;;;14.50;99.90;;;;;;4917132;29;19919;-74
2022/09/03 01:32:09;;;;;;;;;;;14.40;99.90;;;;;;4915474;29;19923;-73
2022/09/03 01:34:41;;;;;;;;;;;14.50;99.90;;;;;;4914185;29;19919;-73
2022/09/03 01:37:18;;;;;;;;;;;14.40;99.90;;;;;;4918715;29;19938;-73
2022/09/03 01:40:02;;;;;;;;;;;14.40;99.90;;;;;;4912473;29;20232;-74
2022/09/03 01:42:34;;;;;;;;;;;14.30;99.90;;;;;;4911307;29;19919;-74
2022/09/03 01:45:27;;;;;;;;;;;14.20;99.90;;;;;;4901240;29;19923;-73
2022/09/03 01:48:12;;;;;;;;;;;14.10;99.90;;;;;;4899210;29;19915;-73
2022/09/03 01:50:44;;;;;;;;;;;13.90;99.90;;;;;;4921757;29;19922;-74
2022/09/03 01:53:09;;;;;;;;;;;13.80;99.90;;;;;;4921563;29;20086;-74
2022/09/03 01:55:57;;;;;;;;;;;13.80;99.90;;;;;;4920673;29;19930;-74
2022/09/03 01:58:22;;;;;;;;;;;13.80;99.90;;;;;;4920492;29;19937;-73
2022/09/03 02:00:55;;;;;;;;;;;13.80;99.90;;;;;;4918421;29;20571;-73
2022/09/03 02:03:22;;;;;;;;;;;13.80;99.90;;;;;;4918529;29;20791;-74
2022/09/03 02:05:51;;;;;;;;;;;13.80;99.90;;;;;;4908742;29;19955;-74
2022/09/03 02:08:17;;;;;;;;;;;13.80;99.90;;;;;;4917260;29;20041;-73
2022/09/03 02:10:43;;;;;;;;;;;13.80;99.90;;;;;;4921006;29;20013;-73
2022/09/03 02:13:10;;;;;;;;;;;13.70;99.90;;;;;;4917845;29;19953;-74
2022/09/03 02:15:38;;;;;;;;;;;13.70;99.90;;;;;;4921551;29;19921;-74
2022/09/03 02:18:05;;;;;;;;;;;13.70;99.90;;;;;;4902678;29;20340;-74
2022/09/03 02:20:31;;;;;;;;;;;13.70;99.90;;;;;;4918937;29;20538;-73
2022/09/03 02:22:56;;;;;;;;;;;13.70;99.90;;;;;;4919098;29;20014;-72
2022/09/03 02:25:25;;;;;;;;;;;13.80;99.90;;;;;;4919839;29;19937;-74
2022/09/03 02:27:51;;;;;;;;;;;13.80;99.90;;;;;;4920453;29;19981;-74
2022/09/03 02:30:17;;;;;;;;;;;13.80;99.90;;;;;;4933313;29;19941;-73
2022/09/03 02:32:43;;;;;;;;;;;13.80;99.90;;;;;;4901393;29;19933;-73
2022/09/03 02:35:08;;;;;;;;;;;13.80;99.90;;;;;;4918770;29;19926;-74
2022/09/03 02:37:34;;;;;;;;;;;13.80;99.90;;;;;;4920751;29;19923;-73
2022/09/03 02:39:59;;;;;;;;;;;13.90;99.90;;;;;;4920863;29;19926;-74
2022/09/03 02:42:26;;;;;;;;;;;13.90;99.90;;;;;;4921551;29;19919;-73
2022/09/03 02:44:53;;;;;;;;;;;14.00;99.90;;;;;;4922101;29;19915;-74
2022/09/03 02:47:19;;;;;;;;;;;14.10;99.90;;;;;;4920681;29;20066;-73
2022/09/03 02:49:47;;;;;;;;;;;14.20;99.90;;;;;;4920588;29;20040;-72
2022/09/03 02:52:13;;;;;;;;;;;14.30;99.90;;;;;;4919642;29;19938;-73
2022/09/03 02:54:39;;;;;;;;;;;14.30;99.90;;;;;;4919623;29;20365;-74
2022/09/03 02:57:06;;;;;;;;;;;14.30;99.90;;;;;;4919019;29;19918;-74
2022/09/03 02:59:31;;;;;;;;;;;14.20;99.90;;;;;;4920496;29;19919;-73
2022/09/03 03:01:57;;;;;;;;;;;14.10;99.90;;;;;;4920569;29;19925;-73
2022/09/03 03:04:22;;;;;;;;;;;14.10;99.90;;;;;;4901327;29;20312;-74
2022/09/03 03:06:49;;;;;;;;;;;14.00;99.90;;;;;;4919657;29;20017;-74
2022/09/03 03:09:15;;;;;;;;;;;14.10;99.90;;;;;;4921568;29;20020;-73
2022/09/03 03:11:41;;;;;;;;;;;14.10;99.90;;;;;;4920429;29;19977;-74
2022/09/03 03:14:06;;;;;;;;;;;14.10;99.90;;;;;;4921298;29;20391;-73
2022/09/03 03:16:32;;;;;;;;;;;14.10;99.90;;;;;;4920164;29;20455;-74
2022/09/03 03:18:58;;;;;;;;;;;14.20;99.90;;;;;;4918256;29;19941;-74
2022/09/03 03:21:24;;;;;;;;;;;14.20;99.90;;;;;;4920524;29;19974;-73
2022/09/03 03:23:50;;;;;;;;;;;14.20;99.90;;;;;;4920225;29;19915;-73
2022/09/03 03:26:17;;;;;;;;;;;14.30;99.90;;;;;;4920835;29;19918;-75
2022/09/03 03:28:43;;;;;;;;;;;14.30;99.90;;;;;;4921632;29;19915;-75
2022/09/03 03:31:10;;;;;;;;;;;14.20;99.90;;;;;;4919995;29;19930;-75
2022/09/03 03:33:35;;;;;;;;;;;14.10;99.90;;;;;;4910768;29;20387;-73
2022/09/03 03:36:08;;;;;;;;;;;14.10;99.90;;;;;;4918926;29;19937;-76
2022/09/03 03:38:35;;;;;;;;;;;14.10;99.90;;;;;;4902949;29;20010;-73
2022/09/03 03:41:22;;;;;;;;;;;14.10;99.90;;;;;;4915466;29;19915;-72
2022/09/03 03:43:55;;;;;;;;;;;14.10;99.90;;;;;;4920023;29;20320;-76
2022/09/03 03:46:22;;;;;;;;;;;14.10;99.90;;;;;;4920839;29;20890;-76
2022/09/03 03:48:48;;;;;;;;;;;14.10;99.90;;;;;;4918857;29;19915;-75
2022/09/03 03:51:13;;;;;;;;;;;14.10;99.90;;;;;;4918716;29;19922;-75
2022/09/03 03:53:39;;;;;;;;;;;14.10;99.90;;;;;;4918969;29;20293;-75
2022/09/03 03:56:06;;;;;;;;;;;14.00;99.90;;;;;;4918428;29;20346;-75
2022/09/03 03:58:32;;;;;;;;;;;14.10;99.90;;;;;;4919438;29;19922;-76
2022/09/03 04:01:05;;;;;;;;;;;14.00;99.90;;;;;;4919587;29;19918;-75
2022/09/03 04:03:30;;;;;;;;;;;14.10;99.90;;;;;;4916866;29;20041;-75
2022/09/03 04:05:58;;;;;;;;;;;14.00;99.90;;;;;;4918488;29;20406;-75
2022/09/03 04:08:24;;;;;;;;;;;14.00;99.90;;;;;;4900233;29;20410;-75
2022/09/03 04:10:50;;;;;;;;;;;14.00;99.90;;;;;;4913044;29;19919;-76
2022/09/03 04:13:16;;;;;;;;;;;13.90;99.90;;;;;;4890577;29;20114;-75
2022/09/03 04:15:41;;;;;;;;;;;13.80;99.90;;;;;;4889661;29;20059;-75
2022/09/03 04:18:07;;;;;;;;;;;13.70;99.90;;;;;;4916356;29;19918;-75
2022/09/03 04:20:34;;;;;;;;;;;13.60;99.90;;;;;;4918389;29;19919;-75
2022/09/03 04:23:00;;;;;;;;;;;13.60;99.90;;;;;;4920371;29;19954;-75
2022/09/03 04:25:26;;;;;;;;;;;13.50;99.90;;;;;;4916630;29;19968;-75
2022/09/03 04:27:51;;;;;;;;;;;13.50;99.90;;;;;;4919763;29;19921;-75
2022/09/03 04:30:17;;;;;;;;;;;13.40;99.90;;;;;;4919279;29;19966;-75
2022/09/03 04:32:52;;;;;;;;;;;13.40;99.90;;;;;;4917663;29;19927;-75
2022/09/03 04:35:19;;;;;;;;;;;13.40;99.90;;;;;;4916266;29;19926;-75
2022/09/03 04:37:45;;;;;;;;;;;13.30;99.90;;;;;;4920719;29;19924;-75
2022/09/03 04:40:11;;;;;;;;;;;13.30;99.90;;;;;;4917352;29;20572;-75
2022/09/03 04:42:37;;;;;;;;;;;13.30;99.90;;;;;;4920377;29;20017;-76
2022/09/03 04:45:02;;;;;;;;;;;13.30;99.90;;;;;;4920321;29;19915;-75
2022/09/03 04:47:28;;;;;;;;;;;13.30;99.90;;;;;;4919411;29;19915;-75
2022/09/03 04:49:54;;;;;;;;;;;13.40;99.90;;;;;;4914739;29;19961;-75
2022/09/03 04:52:20;;;;;;;;;;;13.40;99.90;;;;;;4919287;29;19942;-75
2022/09/03 04:54:45;;;;;;;;;;;13.50;99.90;;;;;;4918571;29;19954;-75
2022/09/03 04:57:11;;;;;;;;;;;13.50;99.90;;;;;;4919530;29;20278;-76
2022/09/03 04:59:37;;;;;;;;;;;13.50;99.90;;;;;;4918155;29;20285;-75
2022/09/03 05:02:03;;;;;;;;;;;13.50;99.90;;;;;;4907912;29;19919;-76
2022/09/03 05:04:28;;;;;;;;;;;13.60;99.90;;;;;;4912783;29;19926;-75
2022/09/03 05:06:54;;;;;;;;;;;13.50;99.90;;;;;;4906216;29;20046;-75
2022/09/03 05:12:23;;;;;;;;;;;13.40;99.90;;;;;;4914940;29;20002;-75
2022/09/03 05:14:48;;;;;;;;;;;13.40;99.90;;;;;;4917267;29;19923;-75
2022/09/03 05:17:13;;;;;;;;;;;13.40;99.90;;;;;;4919831;29;20314;-75
2022/09/03 05:19:39;;;;;;;;;;;13.40;99.90;;;;;;4921728;29;19946;-75
2022/09/03 05:22:04;;;;;;;;;;;13.40;99.90;;;;;;4921927;29;20006;-76
2022/09/03 05:24:30;;;;;;;;;;;13.40;99.90;;;;;;4919890;29;19923;-75
2022/09/03 05:26:56;;;;;;;;;;;13.40;99.90;;;;;;4918330;29;20013;-75
2022/09/03 05:29:21;;;;;;;;;;;13.40;99.90;;;;;;4921899;29;19930;-75
2022/09/03 05:31:47;;;;;;;;;;;13.40;99.90;;;;;;4910248;29;19923;-75
2022/09/03 05:34:12;;;;;;;;;;;13.40;99.90;;;;;;4914201;29;19923;-75
2022/09/03 05:36:38;;;;;;;;;;;13.40;99.90;;;;;;4920269;29;20343;-75
2022/09/03 05:39:04;;;;;;;;;;;13.40;99.90;;;;;;4902548;29;19925;-75
2022/09/03 05:41:32;;;;;;;;;;;13.50;99.90;;;;;;4919110;29;19930;-76
2022/09/03 05:43:58;;;;;;;;;;;13.50;99.90;;;;;;4900833;29;20266;-75
2022/09/03 05:46:30;;;;;;;;;;;13.50;99.90;;;;;;4916306;29;20429;-75
2022/09/03 05:49:05;;;;;;;;;;;13.50;99.90;;;;;;4904705;29;19950;-74
2022/09/03 05:51:31;;;;;;;;;;;13.50;99.90;;;;;;4920291;29;20092;-75
2022/09/03 05:53:57;;;;;;;;;;;13.50;99.90;;;;;;4910644;29;19919;-75
2022/09/03 05:56:24;;;;;;;;;;;13.60;99.90;;;;;;4918244;29;20295;-75
2022/09/03 05:58:51;;;;;;;;;;;13.50;99.90;;;;;;4920949;29;19929;-75
2022/09/03 06:01:30;;;;;;;;;;;13.50;99.90;;;;;;4919725;29;19919;-75
2022/09/03 06:03:58;;;;;;;;;;;13.50;99.90;;;;;;4917321;29;19942;-75
2022/09/03 06:06:24;;;;;;;;;;;13.50;99.90;;;;;;4919902;29;19963;-75
2022/09/03 06:08:50;;;;;;;;;;;13.40;99.90;;;;;;4919219;29;20407;-75
2022/09/03 06:11:16;;;;;;;;;;;13.50;99.90;;;;;;4919458;29;19923;-76
2022/09/03 06:13:41;;;;;;;;;;;13.60;99.90;;;;;;4917779;29;19919;-76
2022/09/03 06:16:07;;;;;;;;;;;13.60;99.90;;;;;;4917443;29;20400;-75
2022/09/03 06:18:33;;;;;;;;;;;13.80;99.90;;;;;;4919374;29;20287;-74
2022/09/03 06:21:00;;;;;;;;;;;13.90;99.90;;;;;;4918916;29;19919;-75
2022/09/03 06:23:26;;;;;;;;;;;14.00;99.90;;;;;;4909339;29;20014;-77
2022/09/03 06:26:05;;;;;;;;;;;14.20;99.90;;;;;;4914524;29;19918;-76
2022/09/03 06:28:33;;;;;;;;;;;14.30;99.90;;;;;;4905827;29;19923;-75
2022/09/03 06:30:58;;;;;;;;;;;14.40;99.90;;;;;;4910810;29;19986;-74
2022/09/03 06:33:24;;;;;;;;;;;14.60;99.90;;;;;;4918620;29;19927;-76
2022/09/03 06:35:56;;;;;;;;;;;14.80;99.90;;;;;;4922557;29;19927;-75
2022/09/03 06:38:22;;;;;;;;;;;14.90;99.90;;;;;;4920028;29;19979;-75
2022/09/03 06:40:55;;;;;;;;;;;15.10;99.90;;;;;;4927527;29;19919;-75
2022/09/03 06:43:20;;;;;;;;;;;15.30;99.90;;;;;;4919323;29;20320;-75
2022/09/03 06:45:53;;;;;;;;;;;15.40;99.90;;;;;;4922551;29;19919;-76
2022/09/03 06:48:19;;;;;;;;;;;15.60;99.90;;;;;;4906233;29;19926;-75
2022/09/03 06:50:52;;;;;;;;;;;15.80;99.90;;;;;;4923418;29;20347;-76
2022/09/03 06:53:17;;;;;;;;;;;16.00;99.90;;;;;;4911965;29;19934;-75
2022/09/03 06:55:44;;;;;;;;;;;16.10;99.90;;;;;;4921386;29;19918;-75
2022/09/03 06:58:10;;;;;;;;;;;16.30;99.90;;;;;;4907738;29;20081;-75
2022/09/03 07:00:35;;;;;;;;;;;16.50;99.90;;;;;;4923078;29;19986;-75
2022/09/03 07:03:01;;;;;;;;;;;16.70;99.90;;;;;;4922981;29;19919;-76
2022/09/03 07:05:27;;;;;;;;;;;16.80;99.90;;;;;;4921190;29;20375;-76
2022/09/03 07:07:53;;;;;;;;;;;16.80;99.90;;;;;;4920218;29;19923;-75
2022/09/03 07:10:20;;;;;;;;;;;16.90;99.90;;;;;;4919880;29;19933;-75
2022/09/03 07:12:46;;;;;;;;;;;17.00;99.90;;;;;;4921859;29;19937;-74
2022/09/03 07:15:11;;;;;;;;;;;17.20;99.90;;;;;;4904011;29;19919;-75
2022/09/03 07:17:37;;;;;;;;;;;17.30;99.90;;;;;;4918651;29;19923;-75
2022/09/03 07:20:02;;;;;;;;;;;17.50;99.90;;;;;;4906273;29;21481;-75
2022/09/03 07:22:28;;;;;;;;;;;17.60;99.90;;;;;;4908870;29;19919;-75
2022/09/03 07:24:54;;;;;;;;;;;17.80;99.90;;;;;;4921289;29;20053;-74
2022/09/03 07:27:19;;;;;;;;;;;18.20;99.90;;;;;;4912519;29;19973;-74
2022/09/03 07:29:45;;;;;;;;;;;18.30;99.90;;;;;;4912891;29;19925;-75
2022/09/03 07:32:10;;;;;;;;;;;18.60;99.90;;;;;;4908427;29;19965;-75
2022/09/03 07:34:36;;;;;;;;;;;19.00;99.90;;;;;;4906479;29;19943;-74
2022/09/03 07:37:04;;;;;;;;;;;19.20;99.90;;;;;;4912314;29;20272;-75
2022/09/03 07:39:29;;;;;;;;;;;19.60;99.90;;;;;;4915382;29;19986;-74
2022/09/03 07:41:57;;;;;;;;;;;19.90;99.90;;;;;;4918711;29;19923;-75
2022/09/03 07:44:23;;;;;;;;;;;20.40;99.90;;;;;;4923185;29;19918;-74
2022/09/03 07:46:49;;;;;;;;;;;21.50;99.90;;;;;;4902833;29;19915;-75
2022/09/03 07:49:16;;;;;;;;;;;22.40;99.90;;;;;;4917387;29;19927;-74
2022/09/03 07:51:41;;;;;;;;;;;23.80;99.90;;;;;;4920729;29;19934;-74
2022/09/03 07:54:09;;;;;;;;;;;24.60;99.90;;;;;;4895695;29;20464;-75
2022/09/03 07:56:35;;;;;;;;;;;25.70;99.90;;;;;;4916106;29;19926;-72
2022/09/03 07:59:02;;;;;;;;;;;26.40;99.90;;;;;;4917055;29;19918;-72
2022/09/03 08:01:30;;;;;;;;;;;26.50;99.90;;;;;;4912306;29;19918;-73
2022/09/03 08:03:55;;;;;;;;;;;26.10;99.90;;;;;;4914533;29;19919;-72
2022/09/03 08:06:22;;;;;;;;;;;26.10;99.90;;;;;;4895779;29;19926;-72
2022/09/03 08:08:48;;;;;;;;;;;26.90;99.90;;;;;;4917286;29;19923;-71
2022/09/03 08:11:15;;;;;;;;;;;27.50;99.90;;;;;;4930665;29;19929;-70
2022/09/03 08:13:42;;;;;;;;;;;28.00;99.90;;;;;;4918005;29;20338;-71
2022/09/03 08:16:08;;;;;;;;;;;27.50;99.90;;;;;;4919772;29;19922;-71
2022/09/03 08:18:36;;;;;;;;;;;28.00;99.90;;;;;;4912036;29;20203;-71
2022/09/03 08:21:03;;;;;;;;;;;29.00;99.90;;;;;;4909340;29;20399;-71
2022/09/03 08:23:29;;;;;;;;;;;30.20;98.10;;;;;;4908294;29;20762;-70
2022/09/03 08:26:01;;;;;;;;;;;30.30;93.60;;;;;;4908039;29;19925;-70
2022/09/03 08:28:27;;;;;;;;;;;31.50;94.00;;;;;;4918324;29;20319;-71
2022/09/03 08:30:53;;;;;;;;;;;32.10;91.80;;;;;;4920466;29;19922;-72
2022/09/03 08:33:35;;;;;;;;;;;33.00;85.10;;;;;;4915489;29;19927;-71
2022/09/03 08:36:03;;;;;;;;;;;33.30;84.00;;;;;;4905285;29;19940;-72
2022/09/03 08:38:30;;;;;;;;;;;33.50;81.30;;;;;;4899963;29;19922;-72
2022/09/03 08:41:01;;;;;;;;;;;33.60;81.60;;;;;;4886671;29;19929;-72
2022/09/03 08:43:27;;;;;;;;;;;33.20;79.70;;;;;;4905712;29;19930;-72
2022/09/03 08:45:52;;;;;;;;;;;33.40;78.10;;;;;;4900017;29;19922;-72
2022/09/03 08:48:21;;;;;;;;;;;33.60;78.60;;;;;;4894935;29;20427;-72
2022/09/03 08:50:50;;;;;;;;;;;33.40;77.20;;;;;;4912803;29;19923;-72
2022/09/03 08:53:34;;;;;;;;;;;32.20;77.30;;;;;;4914825;29;19970;-72
2022/09/03 08:56:06;;;;;;;;;;;32.00;83.00;;;;;;4902459;29;20645;-72
2022/09/03 08:58:34;;;;;;;;;;;32.50;80.50;;;;;;4899626;29;20313;-72
2022/09/03 09:01:02;;;;;;;;;;;33.60;81.80;;;;;;4898057;29;19930;-72
2022/09/03 09:03:31;;;;;;;;;;;34.30;77.00;;;;;;4905478;29;19930;-76
2022/09/03 09:06:09;;;;;;;;;;;35.40;74.60;;;;;;4912335;29;20270;-76
2022/09/03 09:08:42;;;;;;;;;;;35.90;68.30;;;;;;4912256;29;20026;-76
2022/09/03 09:11:15;;;;;;;;;;;36.10;67.50;;;;;;4903570;29;19969;-76
2022/09/03 09:13:48;;;;;;;;;;;36.30;65.30;;;;;;4900286;29;19934;-76
2022/09/03 09:16:33;;;;;;;;;;;36.30;62.50;;;;;;4897171;29;19926;-76
2022/09/03 09:19:13;;;;;;;;;;;35.50;64.70;;;;;;4904441;29;20371;-75
2022/09/03 09:21:44;;;;;;;;;;;35.00;64.10;;;;;;4901579;29;19985;-76
2022/09/03 09:24:20;;;;;;;;;;;34.60;68.90;;;;;;4902927;29;20037;-76
2022/09/03 09:26:47;;;;;;;;;;;34.60;63.30;;;;;;4898431;29;19923;-76
2022/09/03 09:29:13;;;;;;;;;;;35.00;68.40;;;;;;4898760;29;20033;-76
2022/09/03 09:31:39;;;;;;;;;;;35.30;65.60;;;;;;4901080;29;21528;-74
2022/09/03 09:34:05;;;;;;;;;;;35.40;63.00;;;;;;4894494;29;20956;-74
2022/09/03 09:36:36;;;;;;;;;;;35.30;63.50;;;;;;4893649;29;19957;-74
2022/09/03 09:39:08;;;;;;;;;;;35.50;63.90;;;;;;4900614;29;19982;-73
2022/09/03 09:41:34;;;;;;;;;;;35.00;61.50;;;;;;4898524;29;19927;-76
2022/09/03 09:44:01;;;;;;;;;;;34.40;62.70;;;;;;4900002;29;20259;-76
2022/09/03 09:46:30;;;;;;;;;;;34.70;63.60;;;;;;4906739;29;19938;-77
2022/09/03 09:48:56;;;;;;;;;;;34.60;60.90;;;;;;4900563;29;19929;-77
2022/09/03 09:51:30;;;;;;;;;;;34.80;65.60;;;;;;4900293;29;20013;-77
2022/09/03 09:54:01;;;;;;;;;;;34.50;61.20;;;;;;4902044;29;20395;-75
2022/09/03 09:56:26;;;;;;;;;;;34.70;64.00;;;;;;4898093;29;20075;-76
2022/09/03 09:59:05;;;;;;;;;;;35.20;61.80;;;;;;4907100;29;20041;-76
2022/09/03 10:01:31;;;;;;;;;;;34.70;61.00;;;;;;4901704;29;19926;-73
2022/09/03 10:04:07;;;;;;;;;;;34.60;60.50;;;;;;4896570;29;20535;-75
2022/09/03 10:09:22;;;;;;;;;;;35.30;61.40;;;;;;4903746;29;19934;-75
2022/09/03 10:11:50;;;;;;;;;;;35.70;58.20;;;;;;4901489;29;19926;-75
2022/09/03 10:14:24;;;;;;;;;;;35.60;61.10;;;;;;4913470;29;19919;-73
2022/09/03 10:16:53;;;;;;;;;;;35.60;56.70;;;;;;4917813;29;19938;-73
2022/09/03 10:19:22;;;;;;;;;;;35.80;55.80;;;;;;4916797;29;19978;-74
2022/09/03 10:21:47;;;;;;;;;;;36.10;54.90;;;;;;4918888;29;19945;-75
2022/09/03 10:24:14;;;;;;;;;;;35.50;55.70;;;;;;4918932;29;20359;-75
2022/09/03 10:26:40;;;;;;;;;;;35.30;55.30;;;;;;4919354;29;20374;-79
2022/09/03 10:29:07;;;;;;;;;;;34.90;55.50;;;;;;4914133;29;19966;-75
2022/09/03 10:31:45;;;;;;;;;;;34.70;58.80;;;;;;4915401;29;19931;-77
2022/09/03 10:34:32;;;;;;;;;;;34.20;57.00;;;;;;4920787;29;20657;-74
2022/09/03 10:37:28;;;;;;;;;;;32.50;59.00;;;;;;4915244;29;20379;-74
2022/09/03 10:39:53;;;;;;;;;;;31.00;63.70;;;;;;4909380;29;19934;-73
2022/09/03 10:42:20;;;;;;;;;;;29.90;68.30;;;;;;4923113;29;20007;-73
2022/09/03 10:45:02;;;;;;;;;;;29.20;70.30;;;;;;4899154;29;19973;-74
2022/09/03 10:47:43;;;;;;;;;;;28.70;71.70;;;;;;4918678;29;20048;-73
2022/09/03 10:50:15;;;;;;;;;;;28.40;72.80;;;;;;4921045;29;19919;-72
2022/09/03 10:53:04;;;;;;;;;;;28.10;87.70;;;;;;4922021;29;19929;-74
2022/09/03 10:55:47;;;;;;;;;;;28.20;83.40;;;;;;4921229;29;20303;-73
2022/09/03 10:58:28;;;;;;;;;;;28.70;80.20;;;;;;4919583;29;19941;-74
2022/09/03 11:00:59;;;;;;;;;;;28.80;83.60;;;;;;4920817;29;19928;-73
2022/09/03 11:03:39;;;;;;;;;;;28.50;79.40;;;;;;4920117;29;19926;-74
2022/09/03 11:06:10;;;;;;;;;;;28.50;79.30;;;;;;4918452;29;19973;-73
2022/09/03 11:08:58;;;;;;;;;;;28.90;81.90;;;;;;4920009;29;19927;-75
2022/09/03 11:11:35;;;;;;;;;;;28.80;75.90;;;;;;4921026;29;19927;-74
2022/09/03 11:14:08;;;;;;;;;;;28.70;74.60;;;;;;4921139;29;20390;-74
2022/09/03 11:16:57;;;;;;;;;;;28.50;79.20;;;;;;4918907;29;19941;-74
2022/09/03 11:19:29;;;;;;;;;;;28.00;80.90;;;;;;4917360;29;19919;-74
2022/09/03 11:21:55;;;;;;;;;;;27.60;80.30;;;;;;4920249;29;19934;-73
2022/09/03 11:24:22;;;;;;;;;;;27.40;89.00;;;;;;4921608;29;20432;-75
2022/09/03 11:27:13;;;;;;;;;;;27.80;91.10;;;;;;4921036;29;20353;-74
2022/09/03 11:29:39;;;;;;;;;;;28.20;84.70;;;;;;4913415;29;19919;-73
2022/09/03 11:32:09;;;;;;;;;;;29.00;81.80;;;;;;4919786;29;19919;-75
2022/09/03 11:34:46;;;;;;;;;;;29.60;82.50;;;;;;4914845;29;21621;-75
2022/09/03 11:37:15;;;;;;;;;;;29.80;79.40;;;;;;4912777;29;20339;-74
2022/09/03 11:39:41;;;;;;;;;;;29.70;82.30;;;;;;4907333;29;19941;-75
2022/09/03 11:42:11;;;;;;;;;;;29.60;80.90;;;;;;4918173;29;20104;-73
2022/09/03 11:44:38;;;;;;;;;;;29.30;79.90;;;;;;4916757;29;20064;-76
2022/09/03 11:47:14;;;;;;;;;;;28.60;82.90;;;;;;4921621;29;19926;-75
2022/09/03 11:49:43;;;;;;;;;;;27.70;88.30;;;;;;4914821;29;20387;-73
2022/09/03 11:52:09;;;;;;;;;;;27.40;94.80;;;;;;4922269;29;20460;-75
2022/09/03 11:54:42;;;;;;;;;;;27.50;95.30;;;;;;4919542;29;19942;-75
2022/09/03 11:57:10;;;;;;;;;;;27.60;95.80;;;;;;4927372;29;19918;-76
2022/09/03 11:59:36;;;;;;;;;;;27.60;91.70;;;;;;4924315;29;19919;-74
2022/09/03 12:02:20;;;;;;;;;;;27.50;93.60;;;;;;4921119;29;20378;-75
2022/09/03 12:04:54;;;;;;;;;;;27.30;95.20;;;;;;4918411;29;19962;-74
2022/09/03 12:07:40;;;;;;;;;;;27.00;95.60;;;;;;4905502;29;19923;-72
2022/09/03 12:10:19;;;;;;;;;;;26.30;95.60;;;;;;4873681;29;20733;-71
2022/09/03 12:12:45;;;;;;;;;;;25.60;99.70;;;;;;4922459;29;20026;-72
2022/09/03 12:15:28;;;;;;;;;;;25.30;99.90;;;;;;4922274;29;19998;-72
2022/09/03 12:18:20;;;;;;;;;;;25.10;99.90;;;;;;4921953;29;19982;-72
2022/09/03 12:20:47;;;;;;;;;;;24.80;99.90;;;;;;4912395;29;21225;-72
2022/09/03 12:23:24;;;;;;;;;;;24.80;99.90;;;;;;4922816;29;19985;-72
2022/09/03 12:25:51;;;;;;;;;;;24.80;99.90;;;;;;4921862;29;20336;-73
2022/09/03 12:28:22;;;;;;;;;;;25.20;99.90;;;;;;4920885;29;20450;-72
2022/09/03 12:30:48;;;;;;;;;;;25.20;99.90;;;;;;4921818;29;19953;-72
2022/09/03 12:33:16;;;;;;;;;;;25.10;99.90;;;;;;4901929;29;19941;-73
2022/09/03 12:35:42;;;;;;;;;;;24.80;99.90;;;;;;4921382;29;19981;-73
2022/09/03 12:38:07;;;;;;;;;;;24.80;99.90;;;;;;4921258;29;19962;-73
2022/09/03 12:40:33;;;;;;;;;;;24.70;99.90;;;;;;4911892;29;20286;-73
2022/09/03 12:43:14;;;;;;;;;;;24.90;99.90;;;;;;4921635;29;19969;-73
2022/09/03 12:45:44;;;;;;;;;;;25.30;99.90;;;;;;4919704;29;20005;-72
2022/09/03 12:48:17;;;;;;;;;;;25.70;99.90;;;;;;4922085;29;20709;-72
2022/09/03 12:50:43;;;;;;;;;;;26.00;99.90;;;;;;4921097;29;19922;-73
2022/09/03 12:53:11;;;;;;;;;;;25.90;99.90;;;;;;4921924;29;20697;-73
2022/09/03 12:55:42;;;;;;;;;;;25.80;99.90;;;;;;4919551;29;21151;-73
2022/09/03 12:58:17;;;;;;;;;;;25.60;99.90;;;;;;4920606;29;19919;-73
2022/09/03 13:00:56;;;;;;;;;;;25.60;99.90;;;;;;4920461;29;19919;-73
2022/09/03 13:03:34;;;;;;;;;;;25.50;99.90;;;;;;4912075;29;19958;-71
2022/09/03 13:06:07;;;;;;;;;;;25.70;99.90;;;;;;4915099;29;19922;-73
2022/09/03 13:08:37;;;;;;;;;;;26.40;99.90;;;;;;4905250;29;20267;-73
2022/09/03 13:11:03;;;;;;;;;;;26.60;99.90;;;;;;4896365;29;19919;-73
2022/09/03 13:13:34;;;;;;;;;;;26.80;99.90;;;;;;4913303;29;20414;-73
2022/09/03 13:15:59;;;;;;;;;;;26.80;98.70;;;;;;4913383;29;20037;-73
2022/09/03 13:18:37;;;;;;;;;;;26.80;99.90;;;;;;4906623;29;19957;-73
2022/09/03 13:21:18;;;;;;;;;;;26.60;99.90;;;;;;4911469;29;19918;-73
2022/09/03 13:23:51;;;;;;;;;;;26.50;99.90;;;;;;4917366;29;19927;-73
2022/09/03 13:26:22;;;;;;;;;;;26.10;99.90;;;;;;4911193;29;19918;-73
2022/09/03 13:29:06;;;;;;;;;;;26.10;99.90;;;;;;4912838;29;19919;-72
2022/09/03 13:31:55;;;;;;;;;;;26.30;99.90;;;;;;4917338;29;19929;-73
2022/09/03 13:34:24;;;;;;;;;;;26.50;99.90;;;;;;4905372;29;20013;-73
2022/09/03 13:37:02;;;;;;;;;;;26.40;99.00;;;;;;4921840;29;20092;-74
2022/09/03 13:39:31;;;;;;;;;;;26.10;99.90;;;;;;4915825;29;19969;-74
2022/09/03 13:42:10;;;;;;;;;;;25.90;99.90;;;;;;4914476;29;20367;-72
2022/09/03 13:44:49;;;;;;;;;;;26.00;99.90;;;;;;4906591;29;20390;-73
2022/09/03 13:47:14;;;;;;;;;;;26.10;99.90;;;;;;4923714;29;19950;-73
2022/09/03 13:52:30;;;;;;;;;;;25.80;99.90;;;;;;4923178;29;19982;-73
2022/09/03 13:55:02;;;;;;;;;;;25.70;99.90;;;;;;4925239;29;20287;-73
2022/09/03 13:57:33;;;;;;;;;;;25.80;99.50;;;;;;4923149;29;19962;-73
2022/09/03 14:00:09;;;;;;;;;;;25.70;99.90;;;;;;4925076;29;19914;-72
2022/09/03 14:02:44;;;;;;;;;;;25.50;99.90;;;;;;4924879;29;19927;-73
2022/09/03 14:05:16;;;;;;;;;;;25.20;99.90;;;;;;4921429;29;19919;-75
2022/09/03 14:07:45;;;;;;;;;;;25.10;99.90;;;;;;4922570;29;22084;-75
2022/09/03 14:10:13;;;;;;;;;;;25.00;99.70;;;;;;4917772;29;19919;-76
2022/09/03 14:12:57;;;;;;;;;;;25.10;99.90;;;;;;4925722;29;19923;-75
2022/09/03 14:15:28;;;;;;;;;;;25.20;99.90;;;;;;4923815;29;19925;-75
2022/09/03 14:18:13;;;;;;;;;;;25.40;99.90;;;;;;4906149;29;19994;-76
2022/09/03 14:20:47;;;;;;;;;;;25.60;99.90;;;;;;4916933;29;20018;-75
2022/09/03 14:23:22;;;;;;;;;;;25.70;99.90;;;;;;4921294;29;19933;-75
2022/09/03 14:25:54;;;;;;;;;;;25.80;99.90;;;;;;4578714;29;10000071;-75
2022/09/03 14:28:38;;;;;;;;;;;26.00;99.90;;;;;;4921334;29;19923;-73
2022/09/03 14:31:12;;;;;;;;;;;26.20;99.90;;;;;;4922195;29;20537;-73
2022/09/03 14:33:58;;;;;;;;;;;26.20;99.90;;;;;;4923319;29;19973;-75
2022/09/03 14:36:27;;;;;;;;;;;26.00;99.90;;;;;;4906048;29;19938;-72
2022/09/03 14:39:10;;;;;;;;;;;26.00;99.90;;;;;;4919208;29;19919;-75
2022/09/03 14:41:35;;;;;;;;;;;25.30;99.80;;;;;;4922991;29;19926;-75